createdAt,value
2019-06-20T00:00:47.789Z,4.27
2019-06-20T00:03:14.455Z,6.47
2019-06-20T00:05:40.991Z,3.43
2019-06-20T00:08:07.394Z,4.17
2019-06-20T00:10:33.790Z,4.10
2019-06-20T00:13:00.993Z,5.97
2019-06-20T00:15:27.537Z,3.93
2019-06-20T00:17:54.006Z,4.43
2019-06-20T00:20:20.335Z,3.80
2019-06-20T00:22:46.707Z,4.80
2019-06-20T00:25:13.833Z,5.77
2019-06-20T00:27:40.211Z,4.57
2019-06-20T00:30:08.463Z,7.53
2019-06-20T00:32:34.783Z,4.53
2019-06-20T00:35:01.136Z,5.20
2019-06-20T00:37:27.444Z,4.90
2019-06-20T00:39:53.800Z,5.53
2019-06-20T00:42:20.141Z,7.33
2019-06-20T00:44:46.484Z,4.83
2019-06-20T00:47:12.860Z,6.23
2019-06-20T00:49:39.096Z,5.93
2019-06-20T00:52:05.485Z,6.17
2019-06-20T00:54:31.867Z,5.27
2019-06-20T00:56:58.285Z,7.40
2019-06-20T00:59:24.967Z,4.97
2019-06-20T01:01:51.298Z,4.87
2019-06-20T01:04:17.710Z,11.60
2019-06-20T01:06:44.047Z,4.47
2019-06-20T01:09:10.466Z,4.53
2019-06-20T01:11:37.084Z,8.83
2019-06-20T01:14:04.589Z,5.13
2019-06-20T01:16:30.988Z,3.80
2019-06-20T01:18:57.338Z,7.57
2019-06-20T01:21:24.052Z,4.53
2019-06-20T01:23:50.355Z,8.63
2019-06-20T01:26:16.674Z,9.43
2019-06-20T01:28:43.009Z,6.13
2019-06-20T01:31:09.431Z,4.80
2019-06-20T01:33:35.798Z,8.87
2019-06-20T01:36:02.507Z,5.80
2019-06-20T01:38:28.865Z,4.60
2019-06-20T01:40:55.710Z,6.70
2019-06-20T01:43:22.009Z,7.60
2019-06-20T01:45:48.459Z,4.13
2019-06-20T01:48:14.791Z,10.07
2019-06-20T01:50:41.549Z,4.40
2019-06-20T01:53:08.374Z,8.50
2019-06-20T01:55:34.736Z,9.30
2019-06-20T01:58:01.162Z,5.90
2019-06-20T02:00:41.786Z,4.77
2019-06-20T02:03:08.240Z,5.30
2019-06-20T02:05:34.573Z,5.03
2019-06-20T02:08:00.931Z,7.23
2019-06-20T02:10:27.279Z,5.90
2019-06-20T02:12:53.642Z,6.20
2019-06-20T02:15:19.964Z,6.43
2019-06-20T02:17:46.329Z,6.93
2019-06-20T02:20:36.184Z,6.30
2019-06-20T02:23:03.238Z,6.63
2019-06-20T02:25:29.684Z,7.20
2019-06-20T02:27:56.011Z,7.30
2019-06-20T02:30:22.837Z,8.30
2019-06-20T02:32:49.141Z,6.07
2019-06-20T02:35:15.537Z,6.20
2019-06-20T02:37:41.909Z,7.13
2019-06-20T02:40:08.538Z,16.97
2019-06-20T02:42:35.110Z,6.47
2019-06-20T02:45:01.659Z,6.40
2019-06-20T02:47:28.182Z,11.43
2019-06-20T02:49:54.565Z,7.07
2019-06-20T02:52:22.586Z,7.10
2019-06-20T02:54:48.970Z,13.60
2019-06-20T02:57:15.367Z,11.83
2019-06-20T02:59:41.714Z,11.17
2019-06-20T03:02:08.049Z,9.27
2019-06-20T03:04:36.412Z,8.37
2019-06-20T03:07:02.732Z,11.17
2019-06-20T03:09:29.076Z,7.90
2019-06-20T03:11:55.448Z,7.33
2019-06-20T03:14:21.786Z,8.00
2019-06-20T03:16:48.152Z,7.63
2019-06-20T03:19:14.482Z,9.70
2019-06-20T03:21:40.857Z,8.17
2019-06-20T03:24:07.196Z,13.33
2019-06-20T03:26:33.530Z,10.23
2019-06-20T03:29:00.231Z,10.33
2019-06-20T03:31:27.057Z,6.37
2019-06-20T03:33:53.408Z,8.30
2019-06-20T03:36:19.731Z,9.07
2019-06-20T03:38:46.106Z,8.63
2019-06-20T03:41:12.534Z,8.77
2019-06-20T03:43:38.973Z,8.37
2019-06-20T03:46:05.317Z,9.03
2019-06-20T03:48:31.651Z,8.10
2019-06-20T03:50:58.350Z,11.90
2019-06-20T03:53:24.812Z,7.93
2019-06-20T03:55:51.547Z,7.37
2019-06-20T03:58:18.030Z,7.27
2019-06-20T04:00:44.390Z,9.60
2019-06-20T04:03:10.880Z,6.80
2019-06-20T04:05:37.253Z,6.70
2019-06-20T04:08:03.996Z,6.20
2019-06-20T04:10:30.715Z,8.10
2019-06-20T04:12:57.092Z,5.37
2019-06-20T04:15:23.529Z,7.07
2019-06-20T04:17:50.133Z,6.03
2019-06-20T04:20:16.664Z,7.43
2019-06-20T04:22:43.080Z,8.20
2019-06-20T04:25:09.739Z,8.47
2019-06-20T04:27:36.236Z,5.90
2019-06-20T04:30:05.808Z,5.17
2019-06-20T04:32:32.176Z,8.83
2019-06-20T04:34:58.788Z,6.90
2019-06-20T04:37:26.298Z,6.30
2019-06-20T04:39:52.988Z,8.63
2019-06-20T04:42:19.339Z,8.20
2019-06-20T04:44:45.733Z,8.20
2019-06-20T04:47:14.055Z,13.13
2019-06-20T04:49:40.442Z,5.20
2019-06-20T04:52:06.901Z,12.67
2019-06-20T04:54:35.199Z,10.50
2019-06-20T04:57:04.108Z,13.80
2019-06-20T04:59:31.297Z,9.37
2019-06-20T05:01:57.652Z,7.93
2019-06-20T05:04:24.033Z,9.63
2019-06-20T05:07:18.116Z,7.03
2019-06-20T05:09:44.454Z,6.90
2019-06-20T05:12:10.843Z,7.13
2019-06-20T05:14:37.145Z,12.00
2019-06-20T05:17:07.031Z,5.47
2019-06-20T05:19:31.839Z,7.77
2019-06-20T05:21:58.187Z,5.00
2019-06-20T05:24:25.628Z,5.53
2019-06-20T05:26:52.161Z,10.03
2019-06-20T05:29:18.543Z,5.77
2019-06-20T05:31:45.048Z,6.20
2019-06-20T05:34:11.515Z,5.60
2019-06-20T05:36:37.864Z,6.17
2019-06-20T05:39:05.398Z,9.33
2019-06-20T05:41:31.803Z,14.90
2019-06-20T05:43:58.181Z,9.10
2019-06-20T05:46:24.528Z,10.00
2019-06-20T05:48:50.892Z,15.10
2019-06-20T05:51:17.304Z,10.03
2019-06-20T05:53:43.992Z,8.40
2019-06-20T05:56:10.363Z,7.30
2019-06-20T05:58:36.732Z,6.87
2019-06-20T06:01:03.244Z,9.67
2019-06-20T06:03:29.980Z,8.40
2019-06-20T06:05:56.338Z,12.03
2019-06-20T06:08:22.723Z,9.80
2019-06-20T06:10:50.165Z,14.50
2019-06-20T06:13:16.528Z,6.07
2019-06-20T06:15:42.973Z,11.77
2019-06-20T06:18:09.309Z,6.83
2019-06-20T06:20:35.616Z,9.80
2019-06-20T06:23:02.079Z,7.40
2019-06-20T06:25:28.519Z,11.73
2019-06-20T06:27:54.933Z,7.93
2019-06-20T06:30:21.696Z,10.10
2019-06-20T06:32:48.029Z,8.67
2019-06-20T06:35:14.882Z,8.33
2019-06-20T06:37:42.437Z,6.00
2019-06-20T06:40:11.193Z,8.53
2019-06-20T06:42:37.568Z,7.07
2019-06-20T06:45:10.485Z,7.53
2019-06-20T06:47:37.105Z,5.87
2019-06-20T06:50:05.226Z,6.30
2019-06-20T06:52:31.545Z,8.47
2019-06-20T06:54:57.920Z,5.80
2019-06-20T06:57:24.259Z,5.80
2019-06-20T06:59:50.582Z,8.07
2019-06-20T07:02:17.030Z,7.37
2019-06-20T07:04:43.357Z,7.00
2019-06-20T07:07:09.763Z,5.93
2019-06-20T07:09:38.207Z,5.00
2019-06-20T07:12:04.596Z,5.47
2019-06-20T07:14:30.913Z,4.20
2019-06-20T07:17:00.532Z,3.60
2019-06-20T07:19:25.712Z,3.40
2019-06-20T07:21:52.373Z,2.70
2019-06-20T07:24:18.717Z,3.13
2019-06-20T07:26:45.049Z,3.97
2019-06-20T07:29:11.463Z,6.70
2019-06-20T07:31:37.789Z,4.40
2019-06-20T07:34:04.161Z,3.23
2019-06-20T07:36:31.593Z,4.87
2019-06-20T07:38:57.927Z,12.57
2019-06-20T07:41:24.259Z,3.27
2019-06-20T07:43:50.602Z,2.90
2019-06-20T07:46:16.943Z,3.03
2019-06-20T07:48:43.346Z,3.47
2019-06-20T07:51:09.696Z,2.43
2019-06-20T07:53:36.039Z,4.60
2019-06-20T07:56:02.371Z,5.03
2019-06-20T07:58:28.733Z,2.53
2019-06-20T08:00:55.192Z,3.27
2019-06-20T08:03:23.406Z,1.80
2019-06-20T08:05:50.105Z,1.60
2019-06-20T08:08:16.670Z,4.30
2019-06-20T08:10:45.134Z,2.13
2019-06-20T08:13:11.474Z,4.13
2019-06-20T08:15:38.302Z,2.60
2019-06-20T08:18:05.304Z,3.10
2019-06-20T08:20:31.781Z,2.47
2019-06-20T08:22:58.135Z,3.20
2019-06-20T08:25:24.589Z,3.07
2019-06-20T08:27:53.171Z,4.33
2019-06-20T08:30:25.216Z,5.70
2019-06-20T08:32:52.272Z,2.10
2019-06-20T08:35:21.988Z,2.50
2019-06-20T08:37:49.516Z,2.47
2019-06-20T08:40:16.070Z,2.70
2019-06-20T08:42:42.436Z,2.43
2019-06-20T08:45:09.279Z,3.40
2019-06-20T08:47:35.589Z,11.47
2019-06-20T08:50:06.031Z,4.07
2019-06-20T08:52:32.499Z,2.07
2019-06-20T08:54:59.605Z,3.67
2019-06-20T08:57:26.285Z,2.57
2019-06-20T08:59:52.641Z,3.30
2019-06-20T09:02:19.104Z,6.77
2019-06-20T09:04:45.455Z,3.83
2019-06-20T09:07:11.829Z,3.00
2019-06-20T09:09:38.268Z,4.90
2019-06-20T09:12:05.642Z,2.83
2019-06-20T09:14:31.994Z,3.20
2019-06-20T09:16:59.368Z,3.10
2019-06-20T09:19:29.872Z,3.77
2019-06-20T09:21:57.990Z,6.00
2019-06-20T09:24:25.690Z,3.30
2019-06-20T09:26:55.450Z,3.00
2019-06-20T09:29:21.881Z,4.20
2019-06-20T09:31:48.744Z,2.90
2019-06-20T09:34:16.306Z,4.20
2019-06-20T09:36:42.657Z,5.70
2019-06-20T09:39:08.983Z,7.03
2019-06-20T09:41:35.338Z,10.37
2019-06-20T09:44:03.094Z,6.10
2019-06-20T09:46:30.026Z,2.60
2019-06-20T09:48:56.358Z,3.10
2019-06-20T09:51:22.811Z,5.63
2019-06-20T09:53:49.910Z,4.27
2019-06-20T09:56:16.831Z,2.60
2019-06-20T09:58:43.240Z,4.60
2019-06-20T10:01:09.599Z,2.80
2019-06-20T10:03:35.923Z,3.90
2019-06-20T10:06:12.919Z,3.63
2019-06-20T10:08:30.626Z,3.03
2019-06-20T10:10:58.078Z,3.10
2019-06-20T10:13:24.477Z,5.80
2019-06-20T10:15:51.537Z,2.57
2019-06-20T10:18:18.026Z,2.50
2019-06-20T10:20:45.694Z,2.40
2019-06-20T10:23:12.534Z,4.37
2019-06-20T10:25:38.869Z,5.20
2019-06-20T10:28:05.434Z,3.60
2019-06-20T10:30:31.750Z,2.93
2019-06-20T10:32:58.098Z,6.77
2019-06-20T10:35:24.819Z,5.37
2019-06-20T10:37:52.775Z,2.60
2019-06-20T10:40:20.588Z,5.03
2019-06-20T10:42:57.480Z,2.63
2019-06-20T10:45:25.274Z,5.33
2019-06-20T10:47:52.993Z,2.60
2019-06-20T10:50:21.652Z,2.97
2019-06-20T10:52:48.853Z,2.43
2019-06-20T10:55:19.039Z,3.17
2019-06-20T10:57:46.767Z,3.77
2019-06-20T11:00:29.766Z,3.57
2019-06-20T11:02:44.971Z,2.17
2019-06-20T11:05:12.122Z,2.23
2019-06-20T11:07:38.903Z,3.37
2019-06-20T11:10:09.426Z,1.67
2019-06-20T11:12:45.535Z,1.53
2019-06-20T11:15:06.584Z,1.40
2019-06-20T11:17:33.050Z,1.93
2019-06-20T11:19:59.417Z,4.33
2019-06-20T11:22:25.771Z,3.07
2019-06-20T11:24:52.104Z,2.10
2019-06-20T11:27:18.473Z,1.83
2019-06-20T11:29:46.465Z,1.80
2019-06-20T11:32:18.018Z,1.93
2019-06-20T11:34:44.978Z,2.10
2019-06-20T11:37:11.447Z,2.50
2019-06-20T11:39:38.924Z,2.00
2019-06-20T11:42:05.495Z,3.73
2019-06-20T11:44:31.855Z,4.13
2019-06-20T11:46:58.226Z,2.30
2019-06-20T11:49:24.541Z,2.10
2019-06-20T11:51:51.225Z,3.20
2019-06-20T11:54:17.731Z,1.87
2019-06-20T11:56:44.170Z,3.93
2019-06-20T11:59:10.558Z,2.17
2019-06-20T12:01:38.396Z,8.27
2019-06-20T12:04:05.093Z,5.30
2019-06-20T12:06:31.423Z,3.30
2019-06-20T12:11:48.858Z,3.37
2019-06-20T12:14:15.406Z,3.00
2019-06-20T12:16:42.414Z,2.33
2019-06-20T12:19:08.929Z,4.30
2019-06-20T12:21:37.999Z,2.30
2019-06-20T12:24:08.431Z,1.93
2019-06-20T12:26:33.790Z,5.77
2019-06-20T12:29:00.117Z,3.30
2019-06-20T12:31:26.568Z,3.27
2019-06-20T12:33:52.883Z,5.47
2019-06-20T12:36:19.249Z,2.70
2019-06-20T12:38:46.249Z,4.00
2019-06-20T12:41:12.944Z,2.00
2019-06-20T12:43:41.770Z,2.90
2019-06-20T12:46:08.348Z,1.70
2019-06-20T12:48:39.934Z,1.77
2019-06-20T12:51:06.887Z,2.80
2019-06-20T12:53:33.339Z,3.67
2019-06-20T12:55:59.649Z,1.70
2019-06-20T12:58:26.041Z,1.60
2019-06-20T13:00:56.341Z,3.63
2019-06-20T13:03:22.707Z,1.50
2019-06-20T13:05:49.160Z,2.60
2019-06-20T13:08:16.326Z,3.37
2019-06-20T13:10:44.188Z,3.70
2019-06-20T13:13:11.645Z,3.30
2019-06-20T13:15:39.032Z,1.90
2019-06-20T13:18:06.813Z,1.90
2019-06-20T13:20:33.525Z,3.53
2019-06-20T13:22:59.887Z,1.67
2019-06-20T13:25:26.671Z,1.90
2019-06-20T13:27:53.015Z,4.87
2019-06-20T13:30:19.645Z,3.70
2019-06-20T13:32:47.214Z,4.20
2019-06-20T13:35:14.834Z,3.33
2019-06-20T13:37:42.086Z,5.03
2019-06-20T13:40:10.041Z,8.00
2019-06-20T13:42:36.379Z,4.67
2019-06-20T13:45:06.983Z,2.90
2019-06-20T13:47:33.791Z,2.53
2019-06-20T13:50:00.458Z,5.23
2019-06-20T13:52:28.372Z,2.30
2019-06-20T13:54:54.744Z,3.87
2019-06-20T13:57:21.392Z,2.67
2019-06-20T13:59:51.452Z,1.93
2019-06-20T14:02:17.754Z,1.40
2019-06-20T14:04:44.517Z,1.47
2019-06-20T14:07:10.962Z,1.50
2019-06-20T14:09:44.581Z,2.37
2019-06-20T14:12:13.350Z,2.30
2019-06-20T14:14:42.235Z,1.23
2019-06-20T14:17:09.870Z,1.97
2019-06-20T14:19:39.546Z,2.87
2019-06-20T14:22:06.817Z,3.03
2019-06-20T14:24:33.568Z,2.83
2019-06-20T14:27:02.397Z,4.40
2019-06-20T14:29:29.234Z,2.70
2019-06-20T14:31:55.756Z,4.00
2019-06-20T14:34:28.654Z,3.60
2019-06-20T14:36:55.593Z,1.50
2019-06-20T14:39:22.033Z,3.80
2019-06-20T14:41:48.778Z,2.70
2019-06-20T14:44:15.420Z,2.30
2019-06-20T14:46:42.839Z,1.70
2019-06-20T14:49:09.346Z,2.87
2019-06-20T14:51:35.739Z,2.97
2019-06-20T14:54:02.198Z,1.63
2019-06-20T14:56:28.779Z,2.70
2019-06-20T14:58:57.255Z,1.60
2019-06-20T15:01:24.622Z,1.53
2019-06-20T15:03:51.638Z,1.20
2019-06-20T15:06:18.944Z,1.40
2019-06-20T15:08:45.809Z,2.63
2019-06-20T15:11:14.586Z,1.57
2019-06-20T15:13:41.018Z,3.93
2019-06-20T15:16:07.385Z,1.53
2019-06-20T15:18:33.818Z,1.10
2019-06-20T15:21:00.254Z,0.90
2019-06-20T15:23:26.608Z,1.13
2019-06-20T15:25:54.238Z,0.83
2019-06-20T15:28:20.770Z,1.30
2019-06-20T15:30:48.859Z,1.30
2019-06-20T15:33:15.709Z,1.47
2019-06-20T15:35:42.054Z,2.30
2019-06-20T15:38:09.105Z,3.23
2019-06-20T15:40:35.455Z,1.30
2019-06-20T15:43:04.265Z,4.20
2019-06-20T15:45:30.761Z,1.00
2019-06-20T15:47:57.501Z,0.90
2019-06-20T15:50:23.883Z,2.23
2019-06-20T15:52:50.275Z,2.10
2019-06-20T15:55:18.767Z,1.30
2019-06-20T15:57:45.148Z,2.27
2019-06-20T16:00:13.978Z,1.27
2019-06-20T16:02:40.299Z,1.57
2019-06-20T16:05:09.050Z,1.00
2019-06-20T16:07:35.900Z,1.03
2019-06-20T16:10:04.329Z,1.00
2019-06-20T16:12:34.595Z,1.83
2019-06-20T16:15:00.966Z,2.40
2019-06-20T16:17:27.601Z,2.83
2019-06-20T16:19:55.290Z,3.93
2019-06-20T16:22:21.828Z,1.80
2019-06-20T16:24:48.146Z,1.20
2019-06-20T16:27:14.971Z,5.13
2019-06-20T16:29:41.328Z,1.37
2019-06-20T16:32:07.707Z,1.30
2019-06-20T16:34:34.023Z,1.93
2019-06-20T16:37:09.973Z,1.87
2019-06-20T16:39:30.654Z,2.40
2019-06-20T16:41:57.116Z,1.30
2019-06-20T16:44:23.473Z,4.50
2019-06-20T16:46:49.823Z,1.47
2019-06-20T16:49:16.288Z,1.70
2019-06-20T16:51:42.760Z,1.20
2019-06-20T16:54:09.097Z,4.70
2019-06-20T16:56:35.439Z,2.00
2019-06-20T16:59:01.823Z,2.50
2019-06-20T17:01:28.139Z,1.50
2019-06-20T17:03:54.490Z,1.53
2019-06-20T17:06:21.832Z,2.47
2019-06-20T17:08:48.186Z,2.13
2019-06-20T17:11:14.534Z,1.70
2019-06-20T17:13:41.182Z,1.07
2019-06-20T17:16:07.526Z,1.33
2019-06-20T17:18:35.001Z,2.03
2019-06-20T17:21:01.380Z,1.07
2019-06-20T17:23:27.769Z,2.00
2019-06-20T17:25:54.089Z,1.60
2019-06-20T17:28:20.591Z,2.00
2019-06-20T17:30:47.023Z,1.50
2019-06-20T17:33:13.684Z,2.90
2019-06-20T17:35:40.010Z,8.60
2019-06-20T17:38:06.975Z,3.80
2019-06-20T17:40:33.327Z,2.57
2019-06-20T17:43:01.181Z,1.90
2019-06-20T17:45:27.939Z,2.83
2019-06-20T17:47:54.326Z,2.10
2019-06-20T17:50:20.836Z,2.53
2019-06-20T17:52:47.687Z,1.87
2019-06-20T17:55:14.957Z,3.70
2019-06-20T17:57:41.794Z,5.87
2019-06-20T18:00:20.428Z,2.70
2019-06-20T18:02:46.777Z,2.90
2019-06-20T18:05:14.906Z,4.23
2019-06-20T18:07:41.445Z,2.47
2019-06-20T18:10:08.863Z,2.30
2019-06-20T18:12:35.694Z,10.97
2019-06-20T18:15:04.827Z,3.13
2019-06-20T18:17:31.258Z,3.37
2019-06-20T18:19:57.597Z,4.20
2019-06-20T18:22:23.926Z,4.90
2019-06-20T18:24:50.410Z,8.00
2019-06-20T18:27:17.037Z,3.20
2019-06-20T18:29:43.503Z,4.37
2019-06-20T18:32:10.239Z,5.73
2019-06-20T18:34:36.630Z,5.80
2019-06-20T18:37:03.420Z,4.93
2019-06-20T18:39:29.720Z,3.83
2019-06-20T18:41:56.089Z,5.27
2019-06-20T18:44:22.418Z,3.30
2019-06-20T18:46:48.750Z,2.70
2019-06-20T18:49:15.455Z,3.43
2019-06-20T18:51:41.891Z,2.80
2019-06-20T18:54:08.553Z,8.60
2019-06-20T18:56:35.013Z,2.50
2019-06-20T18:59:01.736Z,3.57
2019-06-20T19:01:28.562Z,2.90
2019-06-20T19:03:54.949Z,3.27
2019-06-20T19:06:35.091Z,3.53
2019-06-20T19:08:49.614Z,2.83
2019-06-20T19:11:15.988Z,4.20
2019-06-20T19:13:42.447Z,4.10
2019-06-20T19:16:08.830Z,4.17
2019-06-20T19:18:35.144Z,2.53
2019-06-20T19:21:01.483Z,2.80
2019-06-20T19:23:27.799Z,3.20
2019-06-20T19:25:54.137Z,3.83
2019-06-20T19:28:20.445Z,4.33
2019-06-20T19:30:49.906Z,6.40
2019-06-20T19:33:16.809Z,2.33
2019-06-20T19:35:43.169Z,2.60
2019-06-20T19:38:10.036Z,3.90
2019-06-20T19:40:42.080Z,4.27
2019-06-20T19:43:08.415Z,3.00
2019-06-20T19:45:34.749Z,10.37
2019-06-20T19:48:01.638Z,3.47
2019-06-20T19:50:29.027Z,4.47
2019-06-20T19:52:55.451Z,3.63
2019-06-20T19:55:22.295Z,3.57
2019-06-20T19:57:48.609Z,4.17
2019-06-20T20:00:14.950Z,4.50
2019-06-20T20:02:41.260Z,5.13
2019-06-20T20:05:18.627Z,7.13
2019-06-20T20:07:37.177Z,9.97
2019-06-20T20:10:05.929Z,3.80
2019-06-20T20:12:32.258Z,3.10
2019-06-20T20:14:58.687Z,2.30
2019-06-20T20:17:24.996Z,8.67
2019-06-20T20:19:51.383Z,2.70
2019-06-20T20:22:17.744Z,5.00
2019-06-20T20:24:44.068Z,3.37
2019-06-20T20:27:13.232Z,3.87
2019-06-20T20:29:39.578Z,3.80
2019-06-20T20:32:06.923Z,6.37
2019-06-20T20:34:33.264Z,18.50
2019-06-20T20:36:59.607Z,8.10
2019-06-20T20:39:25.915Z,14.37
2019-06-20T20:41:52.243Z,16.67
2019-06-20T20:44:19.674Z,16.90
2019-06-20T20:46:46.033Z,10.30
2019-06-20T20:49:12.335Z,7.17
2019-06-20T20:51:38.642Z,5.63
2019-06-20T20:54:05.076Z,5.43
2019-06-20T20:56:31.412Z,8.43
2019-06-20T20:58:57.729Z,6.67
2019-06-20T21:01:30.521Z,3.10
2019-06-20T21:03:58.559Z,3.73
2019-06-20T21:06:24.874Z,1.40
2019-06-20T21:08:51.204Z,3.90
2019-06-20T21:11:17.536Z,2.83
2019-06-20T21:13:43.860Z,2.30
2019-06-20T21:16:10.206Z,2.07
2019-06-20T21:18:36.505Z,2.83
2019-06-20T21:21:02.924Z,1.50
2019-06-20T21:23:29.303Z,3.33
2019-06-20T21:25:55.666Z,1.63
2019-06-20T21:28:21.982Z,2.87
2019-06-20T21:30:48.320Z,4.00
2019-06-20T21:33:14.678Z,2.03
2019-06-20T21:35:40.993Z,4.90
2019-06-20T21:38:07.333Z,4.73
2019-06-20T21:40:33.669Z,1.80
2019-06-20T21:42:59.982Z,2.80
2019-06-20T21:45:26.349Z,3.60
2019-06-20T21:47:52.699Z,7.67
2019-06-20T21:50:19.357Z,2.30
2019-06-20T21:52:45.698Z,2.33
2019-06-20T21:55:15.032Z,1.60
2019-06-20T21:57:41.370Z,2.80
2019-06-20T22:00:33.031Z,5.07
2019-06-20T22:03:01.563Z,5.13
2019-06-20T22:05:27.907Z,3.40
2019-06-20T22:07:54.502Z,3.23
2019-06-20T22:10:21.418Z,8.60
2019-06-20T22:12:47.718Z,1.93
2019-06-20T22:15:14.475Z,6.33
2019-06-20T22:17:40.777Z,2.17
2019-06-20T22:20:07.507Z,5.90
2019-06-20T22:22:33.930Z,3.77
2019-06-20T22:25:00.600Z,5.00
2019-06-20T22:27:26.924Z,2.57
2019-06-20T22:29:53.232Z,5.10
2019-06-20T22:32:19.608Z,4.80
2019-06-20T22:34:46.060Z,2.83
2019-06-20T22:37:12.397Z,6.90
2019-06-20T22:39:39.011Z,2.73
2019-06-20T22:42:07.326Z,7.83
2019-06-20T22:44:33.613Z,3.37
2019-06-20T22:46:59.962Z,2.53
2019-06-20T22:49:26.276Z,5.87
2019-06-20T22:51:52.593Z,3.13
2019-06-20T22:54:19.340Z,2.63
2019-06-20T22:56:45.676Z,2.50
2019-06-20T22:59:12.010Z,2.03
2019-06-20T23:01:39.458Z,1.70
2019-06-20T23:04:05.906Z,1.10
2019-06-20T23:06:32.219Z,4.07
2019-06-20T23:08:58.562Z,2.60
2019-06-20T23:11:25.617Z,2.03
2019-06-20T23:13:51.935Z,2.60
2019-06-20T23:16:18.274Z,2.10
2019-06-20T23:18:44.575Z,3.87
2019-06-20T23:21:10.908Z,8.63
2019-06-20T23:23:37.557Z,2.63
2019-06-20T23:26:05.787Z,5.80
2019-06-20T23:28:32.108Z,1.17
2019-06-20T23:30:58.430Z,1.80
2019-06-20T23:33:24.740Z,1.80
2019-06-20T23:35:51.131Z,1.90
2019-06-20T23:38:17.459Z,1.33
2019-06-20T23:40:43.773Z,3.00
2019-06-20T23:43:10.090Z,1.80
2019-06-20T23:45:36.402Z,1.70
2019-06-20T23:48:02.944Z,3.07
2019-06-20T23:50:29.236Z,8.27
2019-06-20T23:53:06.445Z,1.67
2019-06-20T23:55:33.069Z,2.23
2019-06-20T23:57:59.439Z,7.27
